createdAt,value
2023-05-07T11:14:44.874Z,51.32
2023-05-07T11:15:45.893Z,50.90
2023-05-07T11:16:45.979Z,51.10
2023-05-07T11:17:45.808Z,50.38
2023-05-07T11:18:45.899Z,50.16
2023-05-07T11:19:45.798Z,50.88
2023-05-07T11:20:45.827Z,50.88
2023-05-07T11:21:45.768Z,52.00
2023-05-07T11:22:45.907Z,51.77
2023-05-07T11:23:45.826Z,49.91
2023-05-07T11:24:45.711Z,51.40
2023-05-07T11:25:45.756Z,50.43
2023-05-07T11:26:45.789Z,51.52
2023-05-07T11:27:45.746Z,50.60
2023-05-07T11:28:45.684Z,51.92
2023-05-07T11:29:45.773Z,51.23
2023-05-07T11:30:45.898Z,51.40
2023-05-07T11:31:45.708Z,51.42
2023-05-07T11:32:45.635Z,51.07
2023-05-07T11:33:45.647Z,50.36
2023-05-07T11:34:45.710Z,52.94
2023-05-07T11:35:45.721Z,51.07
2023-05-07T11:36:45.657Z,50.98
2023-05-07T11:37:45.715Z,52.31
2023-05-07T11:38:45.583Z,51.23
2023-05-07T11:39:45.608Z,51.30
2023-05-07T11:40:45.545Z,50.63
2023-05-07T11:41:45.515Z,51.32
2023-05-07T11:42:45.594Z,50.75
2023-05-07T11:43:45.494Z,52.34
2023-05-07T11:44:45.658Z,51.92
2023-05-07T11:45:45.549Z,50.63
2023-05-07T11:46:45.494Z,51.12
2023-05-07T11:47:45.528Z,50.73
2023-05-07T11:48:45.446Z,50.73
2023-05-07T11:49:45.445Z,51.72
2023-05-07T11:50:45.459Z,50.45
2023-05-07T11:51:45.723Z,53.04
2023-05-07T11:52:45.621Z,51.67
2023-05-07T11:53:45.636Z,51.20
2023-05-07T11:54:45.358Z,53.19
2023-05-07T11:55:45.435Z,52.79
2023-05-07T11:56:45.329Z,54.58
2023-05-07T11:57:45.305Z,54.78
2023-05-07T11:58:45.276Z,53.09
2023-05-07T11:59:45.480Z,53.78
2023-05-07T12:00:45.578Z,52.81
2023-05-07T12:01:45.438Z,54.50
2023-05-07T12:02:45.434Z,53.34
2023-05-07T12:03:45.495Z,55.65
2023-05-07T12:04:45.661Z,54.96
2023-05-07T12:05:45.308Z,55.65
2023-05-07T12:06:45.202Z,55.68
2023-05-07T12:07:45.340Z,56.38
2023-05-07T12:08:47.044Z,55.78
2023-05-07T12:09:45.216Z,54.58
2023-05-07T12:10:45.184Z,54.81
2023-05-07T12:11:45.237Z,57.30
2023-05-07T12:12:45.163Z,56.30
2023-05-07T12:13:45.095Z,56.10
2023-05-07T12:14:45.162Z,54.44
2023-05-07T12:15:45.101Z,55.06
2023-05-07T12:16:45.312Z,55.26
2023-05-07T12:17:45.113Z,55.86
2023-05-07T12:18:45.169Z,55.86
2023-05-07T12:19:45.057Z,55.16
2023-05-07T12:20:45.038Z,55.33
2023-05-07T12:21:45.102Z,55.86
2023-05-07T12:22:44.972Z,54.27
2023-05-07T12:23:44.999Z,55.76
2023-05-07T12:24:45.230Z,55.49
2023-05-07T12:25:45.018Z,57.26
2023-05-07T12:26:45.274Z,57.09
2023-05-07T12:27:44.925Z,58.78
2023-05-07T12:28:45.157Z,56.48
2023-05-07T12:29:45.101Z,55.56
2023-05-07T12:30:45.184Z,54.69
2023-05-07T12:31:45.050Z,54.79
2023-05-07T12:32:44.876Z,55.99
2023-05-07T12:33:45.011Z,55.29
2023-05-07T12:34:45.747Z,54.89
2023-05-07T12:35:44.801Z,55.19
2023-05-07T12:36:44.916Z,56.98
2023-05-07T12:37:44.760Z,56.79
2023-05-07T12:38:44.773Z,57.98
2023-05-07T12:39:45.003Z,57.58
2023-05-07T12:40:44.829Z,57.28
2023-05-07T12:41:45.102Z,57.98
2023-05-07T12:42:44.942Z,59.38
2023-05-07T12:43:44.783Z,57.68
2023-05-07T12:44:44.690Z,55.39
2023-05-07T12:45:44.732Z,56.01
2023-05-07T12:46:44.716Z,56.31
2023-05-07T12:47:44.814Z,57.71
2023-05-07T12:48:44.685Z,55.02
2023-05-07T12:49:44.711Z,56.91
2023-05-07T12:50:44.582Z,56.54
2023-05-07T12:51:44.590Z,57.14
2023-05-07T12:52:44.707Z,57.41
2023-05-07T12:53:44.602Z,60.71
2023-05-07T12:54:44.571Z,56.41
2023-05-07T12:55:44.783Z,57.21
2023-05-07T12:56:44.749Z,56.74
2023-05-07T12:57:44.631Z,58.73
2023-05-07T12:58:44.629Z,58.34
2023-05-07T12:59:44.687Z,59.04
2023-05-07T13:00:44.558Z,58.51
2023-05-07T13:01:44.513Z,56.48
2023-05-07T13:02:44.673Z,56.48
2023-05-07T13:03:44.578Z,55.58
2023-05-07T13:04:44.561Z,55.79
2023-05-07T13:05:44.410Z,57.01
2023-05-07T13:06:44.543Z,57.11
2023-05-07T13:07:44.485Z,58.01
2023-05-07T13:08:44.415Z,58.51
2023-05-07T13:09:44.477Z,59.31
2023-05-07T13:10:44.363Z,59.38
2023-05-07T13:11:44.347Z,59.48
2023-05-07T13:12:44.444Z,56.48
2023-05-07T13:13:44.376Z,56.98
2023-05-07T13:14:44.315Z,58.08
2023-05-07T13:15:44.408Z,56.91
2023-05-07T13:16:44.403Z,57.01
2023-05-07T13:17:44.274Z,58.31
2023-05-07T13:18:44.510Z,57.21
2023-05-07T13:19:44.364Z,58.51
2023-05-07T13:20:44.188Z,56.41
2023-05-07T13:21:44.241Z,57.01
2023-05-07T13:22:44.271Z,58.61
2023-05-07T13:23:44.349Z,58.01
2023-05-07T13:24:44.205Z,58.31
2023-05-07T13:25:44.479Z,58.41
2023-05-07T13:26:45.895Z,57.61
2023-05-07T13:27:44.381Z,56.79
2023-05-07T13:28:44.489Z,57.98
2023-05-07T13:29:44.101Z,58.38
2023-05-07T13:30:44.212Z,57.28
2023-05-07T13:31:44.107Z,57.58
2023-05-07T13:32:44.129Z,58.68
2023-05-07T13:33:44.161Z,59.58
2023-05-07T13:34:44.304Z,58.78
2023-05-07T13:35:44.029Z,58.88
2023-05-07T13:36:44.023Z,58.58
2023-05-07T13:37:44.130Z,58.31
2023-05-07T13:38:44.310Z,59.34
2023-05-07T13:39:44.047Z,58.73
2023-05-07T13:40:44.012Z,59.34
2023-05-07T13:41:44.133Z,60.03
2023-05-07T13:42:43.928Z,60.57
2023-05-07T13:43:43.989Z,59.47
2023-05-07T13:44:43.926Z,59.99
2023-05-07T13:45:43.928Z,59.59
2023-05-07T13:46:44.050Z,60.89
2023-05-07T13:47:44.036Z,61.16
2023-05-07T13:48:43.994Z,59.27
2023-05-07T13:49:44.015Z,60.10
2023-05-07T13:50:43.884Z,61.19
2023-05-07T13:51:43.818Z,60.19
2023-05-07T13:52:45.749Z,60.52
2023-05-07T13:53:43.858Z,61.02
2023-05-07T13:54:43.887Z,61.02
2023-05-07T13:55:43.763Z,61.22
2023-05-07T13:56:43.974Z,61.52
2023-05-07T13:57:43.734Z,62.49
2023-05-07T13:58:56.169Z,62.29
2023-05-07T13:59:43.850Z,60.36
2023-05-07T14:00:43.738Z,60.36
2023-05-07T14:01:43.762Z,59.79
2023-05-07T14:02:43.675Z,60.29
2023-05-07T14:03:43.793Z,60.19
2023-05-07T14:04:43.722Z,60.62
2023-05-07T14:05:43.724Z,62.42
